ADDS METAR Data INFO
IDs: Format: Raw Decoded Include TAF

Data at: 0336 UTC 19 Feb 2018

KSMO 190251Z VRB03KT 10SM SCT018 13/10 A2989 RMK AO2 SLP121 T01330100 55003
KSMO 190151Z 22006KT 10SM CLR 14/10 A2989 RMK AO2 SLP120 T01390100
KSMO 190051Z 22008KT 10SM FEW018 14/10 A2989 RMK AO2 SLP122 T01440100
KSMO 182351Z 24009KT 10SM SCT040 16/11 A2990 RMK AO2 SLP125 T01560106 10172 20156 56016
KSMO 182251Z 22010KT 10SM CLR 16/11 A2991 RMK AO2 SLP127 T01610106
KSMO 182151Z 23008KT 10SM CLR 16/10 A2992 RMK AO2 SLP132 T01610100
KSMO 182051Z 23006KT 10SM CLR 17/10 A2995 RMK AO2 SLP140 T01670100 58020
KSMO 181951Z 21006KT 10SM CLR 17/09 A2998 RMK AO2 SLP151 T01670094
KSMO 181851Z 23005KT 10SM CLR 16/09 A3000 RMK AO2 SLP156 T01610089
KSMO 181751Z 21006KT 10SM CLR 16/10 A3001 RMK AO2 SLP160 T01560100 10156 20094 50004
KSMO 181651Z 00000KT 10SM CLR 14/10 A3001 RMK AO2 SLP161 T01440100
KSMO 181551Z COR 00000KT 10SM FEW010 12/05 A3000 RMK AO2 SLP159 T01220050
KSMO 181451Z 00000KT 10SM FEW010 10/05 A2999 RMK AO2 SLP156 T01000050 53002
KSMO 181351Z AUTO 35003KT 10SM CLR 10/06 A2999 RMK AO2 SLP153 T01000061
KSMO 181251Z AUTO 00000KT 10SM CLR 10/07 A2999 RMK AO2 SLP155 T01000072
KSMO 181151Z AUTO 04004KT 10SM CLR 11/08 A2999 RMK AO2 SLP154 T01060083 10133 20106 56010
KSMO 181059Z AUTO 02003KT 9SM FEW003 11/11 A3000 RMK AO2 T01110106
KSMO 181051Z AUTO 03003KT 7SM BKN003 12/11 A3000 RMK AO2 SLP159 T01170111
KSMO 181047Z AUTO 03003KT 7SM BKN003 12/11 A3001 RMK AO2
KSMO 180951Z AUTO 02003KT 10SM OVC005 12/07 A3002 RMK AO2 SLP165 T01220072
KSMO 180916Z AUTO 02003KT 10SM BKN005 12/07 A3003 RMK AO2 T01170072
KSMO 180858Z AUTO 05004KT 10SM SCT005 11/07 A3002 RMK AO2 T01110067
KSMO 180851Z AUTO 05003KT 10SM CLR 11/07 A3003 RMK AO2 SLP167 T01110067 58003
KSMO 180751Z AUTO 00000KT 10SM CLR 12/08 A3003 RMK AO2 SLP169 T01170083 402170083
KSMO 180651Z AUTO 00000KT 10SM CLR 12/11 A3004 RMK AO2 SLP170 T01220106
KSMO 180551Z AUTO 00000KT 10SM CLR 13/10 A3003 RMK AO2 SLP170 T01280100 10183 20128 55003
KSMO 180451Z AUTO 00000KT 10SM CLR 14/11 A3003 RMK AO2 SLP169 T01390106
KSMO 180351Z 00000KT 10SM CLR 15/12 A3004 RMK AO2 SLP172 T01500122
KSMO 180251Z VRB03KT 10SM CLR 16/12 A3004 RMK AO2 SLP173 T01560122 56003
KSMO 180151Z 23004KT 10SM CLR 16/12 A3004 RMK AO2 SLP173 T01610117
KSMO 180051Z 24005KT 10SM CLR 18/09 A3004 RMK AO2 SLP172 T01780094
KSMO 172351Z 24008KT 10SM CLR 18/07 A3005 RMK AO2 SLP175 T01830067 10217 20183 56017
KSMO 172251Z 22007KT 10SM CLR 20/02 A3006 RMK AO2 SLP178 T02000022
KSMO 172151Z VRB05KT 10SM CLR 20/01 A3008 RMK AO2 SLP184 T02000011
KSMO 172051Z 22007KT 10SM CLR 21/M02 A3010 RMK AO2 SLP192 T02061017 58014
KSMO 171951Z 20007KT 10SM CLR 20/02 A3013 RMK AO2 SLP201 T02000017
KSMO 171851Z 14004KT 10SM CLR 21/M08 A3014 RMK AO2 SLP205 T02111078
KSMO 171751Z 10005KT 10SM CLR 19/M07 A3014 RMK AO2 SLP206 T01941067 10194 20083 51011
KSMO 171651Z 00000KT 10SM CLR 17/M02 A3014 RMK AO2 SLP205 T01721022
KSMO 171551Z 00000KT 10SM CLR 13/M01 A3013 RMK AO2 SLP200 T01281011